sensor_id;sensor_type;location;lat;lon;timestamp;temperature;humidity
70336;SHT31;57756;47.408;18.940;2023-10-13T00:01:23;14.50;98.19
70336;SHT31;57756;47.408;18.940;2023-10-13T00:03:50;14.44;98.26
70336;SHT31;57756;47.408;18.940;2023-10-13T00:06:17;14.40;98.12
70336;SHT31;57756;47.408;18.940;2023-10-13T00:08:44;14.40;98.47
70336;SHT31;57756;47.408;18.940;2023-10-13T00:11:13;14.37;98.89
70336;SHT31;57756;47.408;18.940;2023-10-13T00:13:39;14.36;98.78
70336;SHT31;57756;47.408;18.940;2023-10-13T00:16:23;14.37;98.66
70336;SHT31;57756;47.408;18.940;2023-10-13T00:18:52;14.34;98.80
70336;SHT31;57756;47.408;18.940;2023-10-13T00:21:23;14.32;98.61
70336;SHT31;57756;47.408;18.940;2023-10-13T00:23:59;14.29;98.70
70336;SHT31;57756;47.408;18.940;2023-10-13T00:26:31;14.23;99.01
70336;SHT31;57756;47.408;18.940;2023-10-13T00:29:02;14.19;98.83
70336;SHT31;57756;47.408;18.940;2023-10-13T00:31:38;14.16;99.15
70336;SHT31;57756;47.408;18.940;2023-10-13T00:34:06;14.16;99.07
70336;SHT31;57756;47.408;18.940;2023-10-13T00:36:58;14.13;99.18
70336;SHT31;57756;47.408;18.940;2023-10-13T00:39:44;14.09;99.16
70336;SHT31;57756;47.408;18.940;2023-10-13T00:42:10;14.12;99.20
70336;SHT31;57756;47.408;18.940;2023-10-13T00:44:45;14.09;99.32
70336;SHT31;57756;47.408;18.940;2023-10-13T00:47:15;14.12;99.42
70336;SHT31;57756;47.408;18.940;2023-10-13T00:49:59;14.09;99.92
70336;SHT31;57756;47.408;18.940;2023-10-13T00:52:24;14.06;99.99
70336;SHT31;57756;47.408;18.940;2023-10-13T00:54:50;14.09;99.66
70336;SHT31;57756;47.408;18.940;2023-10-13T00:57:19;14.09;99.69
70336;SHT31;57756;47.408;18.940;2023-10-13T00:59:56;14.06;99.95
70336;SHT31;57756;47.408;18.940;2023-10-13T01:02:23;14.09;99.99
70336;SHT31;57756;47.408;18.940;2023-10-13T01:05:04;14.09;99.99
70336;SHT31;57756;47.408;18.940;2023-10-13T01:07:29;14.08;99.99
70336;SHT31;57756;47.408;18.940;2023-10-13T01:09:55;14.08;99.99
70336;SHT31;57756;47.408;18.940;2023-10-13T01:12:21;14.08;99.99
70336;SHT31;57756;47.408;18.940;2023-10-13T01:14:48;14.09;99.99
70336;SHT31;57756;47.408;18.940;2023-10-13T01:17:14;14.12;99.99
70336;SHT31;57756;47.408;18.940;2023-10-13T01:19:39;14.13;99.99
70336;SHT31;57756;47.408;18.940;2023-10-13T01:22:08;14.15;99.92
70336;SHT31;57756;47.408;18.940;2023-10-13T01:24:33;14.13;99.99
70336;SHT31;57756;47.408;18.940;2023-10-13T01:27:06;14.13;99.99
70336;SHT31;57756;47.408;18.940;2023-10-13T01:29:48;14.12;99.99
70336;SHT31;57756;47.408;18.940;2023-10-13T01:32:18;14.12;99.99
70336;SHT31;57756;47.408;18.940;2023-10-13T01:34:44;14.10;99.99
70336;SHT31;57756;47.408;18.940;2023-10-13T01:37:13;14.12;99.99
70336;SHT31;57756;47.408;18.940;2023-10-13T01:39:41;14.12;99.99
70336;SHT31;57756;47.408;18.940;2023-10-13T01:42:06;14.12;99.99
70336;SHT31;57756;47.408;18.940;2023-10-13T01:44:32;14.13;99.99
70336;SHT31;57756;47.408;18.940;2023-10-13T01:46:58;14.10;99.99
70336;SHT31;57756;47.408;18.940;2023-10-13T01:49:25;14.13;99.99
70336;SHT31;57756;47.408;18.940;2023-10-13T01:51:50;14.10;99.99
70336;SHT31;57756;47.408;18.940;2023-10-13T01:54:16;14.12;99.99
70336;SHT31;57756;47.408;18.940;2023-10-13T01:56:41;14.12;99.99
70336;SHT31;57756;47.408;18.940;2023-10-13T01:59:11;14.10;99.99
70336;SHT31;57756;47.408;18.940;2023-10-13T02:01:36;14.13;99.84
70336;SHT31;57756;47.408;18.940;2023-10-13T02:04:03;14.12;99.99
70336;SHT31;57756;47.408;18.940;2023-10-13T02:06:36;14.12;99.99
70336;SHT31;57756;47.408;18.940;2023-10-13T02:09:04;14.13;99.99
70336;SHT31;57756;47.408;18.940;2023-10-13T02:11:42;14.13;99.99
70336;SHT31;57756;47.408;18.940;2023-10-13T02:14:11;14.15;99.99
70336;SHT31;57756;47.408;18.940;2023-10-13T02:16:40;14.15;99.99
70336;SHT31;57756;47.408;18.940;2023-10-13T02:19:05;14.16;99.99
70336;SHT31;57756;47.408;18.940;2023-10-13T02:21:31;14.18;99.88
70336;SHT31;57756;47.408;18.940;2023-10-13T02:23:58;14.20;99.99
70336;SHT31;57756;47.408;18.940;2023-10-13T02:26:30;14.19;99.99
70336;SHT31;57756;47.408;18.940;2023-10-13T02:29:00;14.20;99.99
70336;SHT31;57756;47.408;18.940;2023-10-13T02:31:34;14.23;99.99
70336;SHT31;57756;47.408;18.940;2023-10-13T02:34:00;14.23;99.99
70336;SHT31;57756;47.408;18.940;2023-10-13T02:36:26;14.22;99.99
70336;SHT31;57756;47.408;18.940;2023-10-13T02:39:04;14.26;99.99
70336;SHT31;57756;47.408;18.940;2023-10-13T02:41:34;14.25;99.99
70336;SHT31;57756;47.408;18.940;2023-10-13T02:44:03;14.26;99.99
70336;SHT31;57756;47.408;18.940;2023-10-13T02:46:33;14.26;99.99
70336;SHT31;57756;47.408;18.940;2023-10-13T02:49:04;14.29;99.99
70336;SHT31;57756;47.408;18.940;2023-10-13T02:51:36;14.29;99.99
70336;SHT31;57756;47.408;18.940;2023-10-13T02:54:04;14.32;99.99
70336;SHT31;57756;47.408;18.940;2023-10-13T02:56:35;14.33;99.99
70336;SHT31;57756;47.408;18.940;2023-10-13T02:59:02;14.36;99.99
70336;SHT31;57756;47.408;18.940;2023-10-13T03:01:35;14.39;99.99
70336;SHT31;57756;47.408;18.940;2023-10-13T03:04:02;14.41;99.99
70336;SHT31;57756;47.408;18.940;2023-10-13T03:06:38;14.44;99.99
70336;SHT31;57756;47.408;18.940;2023-10-13T03:09:09;14.48;99.99
70336;SHT31;57756;47.408;18.940;2023-10-13T03:11:47;14.50;99.99
70336;SHT31;57756;47.408;18.940;2023-10-13T03:14:21;14.51;99.99
70336;SHT31;57756;47.408;18.940;2023-10-13T03:17:02;14.53;99.99
70336;SHT31;57756;47.408;18.940;2023-10-13T03:19:32;14.56;99.99
70336;SHT31;57756;47.408;18.940;2023-10-13T03:21:59;14.56;99.99
70336;SHT31;57756;47.408;18.940;2023-10-13T03:24:34;14.57;99.99
70336;SHT31;57756;47.408;18.940;2023-10-13T03:27:01;14.56;99.99
70336;SHT31;57756;47.408;18.940;2023-10-13T03:29:37;14.59;99.99
70336;SHT31;57756;47.408;18.940;2023-10-13T03:32:14;14.57;99.99
70336;SHT31;57756;47.408;18.940;2023-10-13T03:34:44;14.57;99.99
70336;SHT31;57756;47.408;18.940;2023-10-13T03:37:25;14.57;99.99
70336;SHT31;57756;47.408;18.940;2023-10-13T03:40:10;14.57;99.99
70336;SHT31;57756;47.408;18.940;2023-10-13T03:42:48;14.56;99.99
70336;SHT31;57756;47.408;18.940;2023-10-13T03:45:34;14.59;99.99
70336;SHT31;57756;47.408;18.940;2023-10-13T03:48:15;14.56;99.99
70336;SHT31;57756;47.408;18.940;2023-10-13T03:50:50;14.57;99.99
70336;SHT31;57756;47.408;18.940;2023-10-13T03:53:40;14.60;99.99
70336;SHT31;57756;47.408;18.940;2023-10-13T03:56:19;14.59;99.99
70336;SHT31;57756;47.408;18.940;2023-10-13T03:59:04;14.57;99.99
70336;SHT31;57756;47.408;18.940;2023-10-13T04:01:37;14.59;99.99
70336;SHT31;57756;47.408;18.940;2023-10-13T04:04:13;14.59;99.99
70336;SHT31;57756;47.408;18.940;2023-10-13T04:06:43;14.60;99.99
70336;SHT31;57756;47.408;18.940;2023-10-13T04:09:16;14.59;99.99
70336;SHT31;57756;47.408;18.940;2023-10-13T04:12:08;14.57;99.99
70336;SHT31;57756;47.408;18.940;2023-10-13T04:19:45;14.59;99.99
70336;SHT31;57756;47.408;18.940;2023-10-13T04:22:29;14.59;99.99
70336;SHT31;57756;47.408;18.940;2023-10-13T04:25:27;14.59;99.99
70336;SHT31;57756;47.408;18.940;2023-10-13T04:28:13;14.60;99.99
70336;SHT31;57756;47.408;18.940;2023-10-13T04:33:29;14.60;99.99
70336;SHT31;57756;47.408;18.940;2023-10-13T04:36:19;14.60;99.99
70336;SHT31;57756;47.408;18.940;2023-10-13T04:38:58;14.60;99.99
70336;SHT31;57756;47.408;18.940;2023-10-13T04:41:34;14.57;99.99
70336;SHT31;57756;47.408;18.940;2023-10-13T04:44:07;14.60;99.99
70336;SHT31;57756;47.408;18.940;2023-10-13T04:46:52;14.61;99.99
70336;SHT31;57756;47.408;18.940;2023-10-13T04:49:20;14.56;99.99
70336;SHT31;57756;47.408;18.940;2023-10-13T04:52:16;14.60;99.99
70336;SHT31;57756;47.408;18.940;2023-10-13T04:55:13;14.60;99.99
70336;SHT31;57756;47.408;18.940;2023-10-13T04:57:49;14.61;99.99
70336;SHT31;57756;47.408;18.940;2023-10-13T05:00:25;14.63;99.99
70336;SHT31;57756;47.408;18.940;2023-10-13T05:03:09;14.64;99.99
70336;SHT31;57756;47.408;18.940;2023-10-13T05:05:53;14.64;99.99
70336;SHT31;57756;47.408;18.940;2023-10-13T05:08:56;14.66;99.99
70336;SHT31;57756;47.408;18.940;2023-10-13T05:11:40;14.66;99.99
70336;SHT31;57756;47.408;18.940;2023-10-13T05:14:24;14.68;99.99
70336;SHT31;57756;47.408;18.940;2023-10-13T05:17:08;14.68;99.99
70336;SHT31;57756;47.408;18.940;2023-10-13T05:19:56;14.73;99.99
70336;SHT31;57756;47.408;18.940;2023-10-13T05:22:40;14.71;99.99
70336;SHT31;57756;47.408;18.940;2023-10-13T05:25:24;14.71;99.99
70336;SHT31;57756;47.408;18.940;2023-10-13T05:28:08;14.77;99.99
70336;SHT31;57756;47.408;18.940;2023-10-13T05:30:52;14.74;99.99
70336;SHT31;57756;47.408;18.940;2023-10-13T05:33:36;14.80;99.99
70336;SHT31;57756;47.408;18.940;2023-10-13T05:36:20;14.84;99.99
70336;SHT31;57756;47.408;18.940;2023-10-13T05:39:04;14.87;99.99
70336;SHT31;57756;47.408;18.940;2023-10-13T05:41:48;14.91;99.99
70336;SHT31;57756;47.408;18.940;2023-10-13T05:44:32;14.99;99.99
70336;SHT31;57756;47.408;18.940;2023-10-13T05:47:02;15.04;99.99
70336;SHT31;57756;47.408;18.940;2023-10-13T05:49:46;15.05;99.99
70336;SHT31;57756;47.408;18.940;2023-10-13T05:52:31;15.15;99.99
70336;SHT31;57756;47.408;18.940;2023-10-13T05:55:14;15.16;99.99
70336;SHT31;57756;47.408;18.940;2023-10-13T05:57:59;15.19;99.99
70336;SHT31;57756;47.408;18.940;2023-10-13T06:00:42;15.22;99.99
70336;SHT31;57756;47.408;18.940;2023-10-13T06:03:26;15.29;99.99
70336;SHT31;57756;47.408;18.940;2023-10-13T06:06:10;15.40;99.81
70336;SHT31;57756;47.408;18.940;2023-10-13T06:08:54;15.47;99.99
70336;SHT31;57756;47.408;18.940;2023-10-13T06:11:38;15.50;99.99
70336;SHT31;57756;47.408;18.940;2023-10-13T06:14:22;15.54;99.99
70336;SHT31;57756;47.408;18.940;2023-10-13T06:17:06;15.61;99.99
70336;SHT31;57756;47.408;18.940;2023-10-13T06:19:51;15.67;99.99
70336;SHT31;57756;47.408;18.940;2023-10-13T06:22:34;15.71;99.99
70336;SHT31;57756;47.408;18.940;2023-10-13T06:25:19;15.77;99.99
70336;SHT31;57756;47.408;18.940;2023-10-13T06:28:03;15.84;99.99
70336;SHT31;57756;47.408;18.940;2023-10-13T06:30:58;15.91;99.99
70336;SHT31;57756;47.408;18.940;2023-10-13T06:33:24;15.93;99.99
70336;SHT31;57756;47.408;18.940;2023-10-13T06:35:55;15.96;99.99
70336;SHT31;57756;47.408;18.940;2023-10-13T06:38:22;16.01;99.99
70336;SHT31;57756;47.408;18.940;2023-10-13T06:40:47;16.00;99.99
70336;SHT31;57756;47.408;18.940;2023-10-13T06:43:15;16.04;99.97
70336;SHT31;57756;47.408;18.940;2023-10-13T06:45:45;16.08;99.82
70336;SHT31;57756;47.408;18.940;2023-10-13T06:48:25;16.11;99.99
70336;SHT31;57756;47.408;18.940;2023-10-13T06:50:52;16.12;99.77
70336;SHT31;57756;47.408;18.940;2023-10-13T06:53:20;16.18;99.92
70336;SHT31;57756;47.408;18.940;2023-10-13T06:55:47;16.19;99.83
70336;SHT31;57756;47.408;18.940;2023-10-13T06:58:14;16.21;99.67
70336;SHT31;57756;47.408;18.940;2023-10-13T07:00:40;16.25;99.53
70336;SHT31;57756;47.408;18.940;2023-10-13T07:03:06;16.30;99.76
70336;SHT31;57756;47.408;18.940;2023-10-13T07:05:39;16.33;99.47
70336;SHT31;57756;47.408;18.940;2023-10-13T07:08:05;16.41;99.46
70336;SHT31;57756;47.408;18.940;2023-10-13T07:10:31;16.45;99.56
70336;SHT31;57756;47.408;18.940;2023-10-13T07:13:10;16.51;99.15
70336;SHT31;57756;47.408;18.940;2023-10-13T07:15:36;16.56;99.03
70336;SHT31;57756;47.408;18.940;2023-10-13T07:18:16;16.60;99.23
70336;SHT31;57756;47.408;18.940;2023-10-13T07:20:48;16.66;99.17
70336;SHT31;57756;47.408;18.940;2023-10-13T07:23:14;16.73;98.90
70336;SHT31;57756;47.408;18.940;2023-10-13T07:25:55;16.79;99.36
70336;SHT31;57756;47.408;18.940;2023-10-13T07:28:22;16.83;98.80
70336;SHT31;57756;47.408;18.940;2023-10-13T07:30:47;16.84;98.51
70336;SHT31;57756;47.408;18.940;2023-10-13T07:33:19;16.79;98.35
70336;SHT31;57756;47.408;18.940;2023-10-13T07:35:59;16.80;98.18
70336;SHT31;57756;47.408;18.940;2023-10-13T07:38:25;16.84;97.77
70336;SHT31;57756;47.408;18.940;2023-10-13T07:40:56;16.93;97.58
70336;SHT31;57756;47.408;18.940;2023-10-13T07:43:32;16.99;97.69
70336;SHT31;57756;47.408;18.940;2023-10-13T07:45:58;17.04;97.57
70336;SHT31;57756;47.408;18.940;2023-10-13T07:48:25;17.07;97.59
70336;SHT31;57756;47.408;18.940;2023-10-13T07:51:02;17.12;97.07
70336;SHT31;57756;47.408;18.940;2023-10-13T07:53:42;17.07;97.14
70336;SHT31;57756;47.408;18.940;2023-10-13T07:56:10;17.10;97.08
70336;SHT31;57756;47.408;18.940;2023-10-13T07:58:39;17.14;96.84
70336;SHT31;57756;47.408;18.940;2023-10-13T08:01:34;17.15;96.73
70336;SHT31;57756;47.408;18.940;2023-10-13T08:03:59;17.10;96.82
70336;SHT31;57756;47.408;18.940;2023-10-13T08:06:37;17.17;96.85
70336;SHT31;57756;47.408;18.940;2023-10-13T08:09:05;17.22;96.59
70336;SHT31;57756;47.408;18.940;2023-10-13T08:11:37;17.25;96.56
70336;SHT31;57756;47.408;18.940;2023-10-13T08:14:04;17.27;96.59
70336;SHT31;57756;47.408;18.940;2023-10-13T08:16:49;17.41;96.06
70336;SHT31;57756;47.408;18.940;2023-10-13T08:19:22;17.53;95.72
70336;SHT31;57756;47.408;18.940;2023-10-13T08:21:59;17.58;95.26
70336;SHT31;57756;47.408;18.940;2023-10-13T08:24:51;17.66;94.82
70336;SHT31;57756;47.408;18.940;2023-10-13T08:27:21;17.72;94.71
70336;SHT31;57756;47.408;18.940;2023-10-13T08:30:00;17.78;95.00
70336;SHT31;57756;47.408;18.940;2023-10-13T08:32:29;17.91;94.45
70336;SHT31;57756;47.408;18.940;2023-10-13T08:34:56;18.03;93.98
70336;SHT31;57756;47.408;18.940;2023-10-13T08:37:35;18.08;93.53
70336;SHT31;57756;47.408;18.940;2023-10-13T08:40:23;18.13;93.72
70336;SHT31;57756;47.408;18.940;2023-10-13T08:43:11;18.07;92.96
70336;SHT31;57756;47.408;18.940;2023-10-13T08:45:40;18.31;93.29
70336;SHT31;57756;47.408;18.940;2023-10-13T08:48:13;18.40;92.41
70336;SHT31;57756;47.408;18.940;2023-10-13T08:50:48;18.47;92.18
70336;SHT31;57756;47.408;18.940;2023-10-13T08:56:06;18.73;90.89
70336;SHT31;57756;47.408;18.940;2023-10-13T08:58:45;18.95;90.85
70336;SHT31;57756;47.408;18.940;2023-10-13T09:01:54;19.13;90.29
70336;SHT31;57756;47.408;18.940;2023-10-13T09:04:25;19.21;90.71
70336;SHT31;57756;47.408;18.940;2023-10-13T09:06:57;19.34;90.44
70336;SHT31;57756;47.408;18.940;2023-10-13T09:09:23;19.38;89.44
70336;SHT31;57756;47.408;18.940;2023-10-13T09:11:55;19.50;89.52
70336;SHT31;57756;47.408;18.940;2023-10-13T09:14:42;19.65;88.81
70336;SHT31;57756;47.408;18.940;2023-10-13T09:17:12;19.78;88.87
70336;SHT31;57756;47.408;18.940;2023-10-13T09:22:24;20.00;88.11
70336;SHT31;57756;47.408;18.940;2023-10-13T09:24:59;20.10;87.04
70336;SHT31;57756;47.408;18.940;2023-10-13T09:27:30;19.96;87.26
70336;SHT31;57756;47.408;18.940;2023-10-13T09:30:04;20.16;86.95
70336;SHT31;57756;47.408;18.940;2023-10-13T09:33:02;21.05;85.59
70336;SHT31;57756;47.408;18.940;2023-10-13T09:35:30;21.32;83.36
70336;SHT31;57756;47.408;18.940;2023-10-13T09:38:00;21.47;84.40
70336;SHT31;57756;47.408;18.940;2023-10-13T09:40:30;21.46;82.77
70336;SHT31;57756;47.408;18.940;2023-10-13T09:42:58;21.46;84.35
70336;SHT31;57756;47.408;18.940;2023-10-13T09:45:34;21.58;83.77
70336;SHT31;57756;47.408;18.940;2023-10-13T09:48:09;21.60;83.30
70336;SHT31;57756;47.408;18.940;2023-10-13T09:50:47;21.42;83.25
70336;SHT31;57756;47.408;18.940;2023-10-13T09:53:14;21.45;82.70
70336;SHT31;57756;47.408;18.940;2023-10-13T09:56:06;21.76;82.50
70336;SHT31;57756;47.408;18.940;2023-10-13T09:58:53;21.94;81.67
70336;SHT31;57756;47.408;18.940;2023-10-13T10:01:24;21.97;81.46
70336;SHT31;57756;47.408;18.940;2023-10-13T10:04:10;21.98;81.83
70336;SHT31;57756;47.408;18.940;2023-10-13T10:06:39;21.87;82.26
70336;SHT31;57756;47.408;18.940;2023-10-13T10:09:07;22.15;81.77
70336;SHT31;57756;47.408;18.940;2023-10-13T10:12:13;22.48;81.01
70336;SHT31;57756;47.408;18.940;2023-10-13T10:17:39;22.45;80.92
70336;SHT31;57756;47.408;18.940;2023-10-13T10:20:05;22.64;80.80
70336;SHT31;57756;47.408;18.940;2023-10-13T10:22:40;22.64;81.13
70336;SHT31;57756;47.408;18.940;2023-10-13T10:25:10;22.86;80.99
70336;SHT31;57756;47.408;18.940;2023-10-13T10:28:01;23.12;79.53
70336;SHT31;57756;47.408;18.940;2023-10-13T10:30:35;23.21;80.38
70336;SHT31;57756;47.408;18.940;2023-10-13T10:33:04;23.48;80.10
70336;SHT31;57756;47.408;18.940;2023-10-13T10:35:59;23.80;78.68
70336;SHT31;57756;47.408;18.940;2023-10-13T10:38:24;23.89;78.98
70336;SHT31;57756;47.408;18.940;2023-10-13T10:41:05;24.07;78.62
70336;SHT31;57756;47.408;18.940;2023-10-13T10:46:13;24.31;78.45
70336;SHT31;57756;47.408;18.940;2023-10-13T10:48:40;24.42;77.79
70336;SHT31;57756;47.408;18.940;2023-10-13T10:51:09;24.25;78.37
70336;SHT31;57756;47.408;18.940;2023-10-13T10:53:50;24.21;78.44
70336;SHT31;57756;47.408;18.940;2023-10-13T10:56:25;24.13;79.18
70336;SHT31;57756;47.408;18.940;2023-10-13T10:59:02;24.17;79.05
70336;SHT31;57756;47.408;18.940;2023-10-13T11:01:30;24.34;78.31
70336;SHT31;57756;47.408;18.940;2023-10-13T11:04:03;24.31;78.92
70336;SHT31;57756;47.408;18.940;2023-10-13T11:06:51;24.40;78.45
70336;SHT31;57756;47.408;18.940;2023-10-13T11:09:26;24.34;77.77
70336;SHT31;57756;47.408;18.940;2023-10-13T11:11:53;24.22;78.16
70336;SHT31;57756;47.408;18.940;2023-10-13T11:14:29;24.51;77.91
70336;SHT31;57756;47.408;18.940;2023-10-13T11:16:57;24.57;77.60
70336;SHT31;57756;47.408;18.940;2023-10-13T11:19:39;24.65;77.95
70336;SHT31;57756;47.408;18.940;2023-10-13T11:24:40;24.76;77.19
70336;SHT31;57756;47.408;18.940;2023-10-13T11:27:16;24.92;76.73
70336;SHT31;57756;47.408;18.940;2023-10-13T11:29:46;25.03;76.12
70336;SHT31;57756;47.408;18.940;2023-10-13T11:32:18;25.12;76.23
70336;SHT31;57756;47.408;18.940;2023-10-13T11:34:48;25.33;76.18
70336;SHT31;57756;47.408;18.940;2023-10-13T11:37:19;25.38;75.23
70336;SHT31;57756;47.408;18.940;2023-10-13T11:40:03;25.55;75.71
70336;SHT31;57756;47.408;18.940;2023-10-13T11:42:35;25.75;75.04
70336;SHT31;57756;47.408;18.940;2023-10-13T11:45:01;25.81;75.30
70336;SHT31;57756;47.408;18.940;2023-10-13T11:47:47;25.82;74.23
70336;SHT31;57756;47.408;18.940;2023-10-13T11:50:25;25.89;74.06
70336;SHT31;57756;47.408;18.940;2023-10-13T11:53:00;25.92;74.79
70336;SHT31;57756;47.408;18.940;2023-10-13T11:55:26;25.98;73.95
70336;SHT31;57756;47.408;18.940;2023-10-13T11:57:51;26.08;73.98
70336;SHT31;57756;47.408;18.940;2023-10-13T12:00:17;26.02;75.52
70336;SHT31;57756;47.408;18.940;2023-10-13T12:03:12;26.12;74.27
70336;SHT31;57756;47.408;18.940;2023-10-13T12:05:56;26.20;73.17
70336;SHT31;57756;47.408;18.940;2023-10-13T12:08:43;26.12;72.36
70336;SHT31;57756;47.408;18.940;2023-10-13T12:11:18;26.30;73.16
70336;SHT31;57756;47.408;18.940;2023-10-13T12:13:56;26.33;73.17
70336;SHT31;57756;47.408;18.940;2023-10-13T12:16:21;26.30;72.62
70336;SHT31;57756;47.408;18.940;2023-10-13T12:18:47;26.33;73.09
70336;SHT31;57756;47.408;18.940;2023-10-13T12:21:21;26.46;72.18
70336;SHT31;57756;47.408;18.940;2023-10-13T12:23:47;26.53;71.76
70336;SHT31;57756;47.408;18.940;2023-10-13T12:26:13;26.60;70.89
70336;SHT31;57756;47.408;18.940;2023-10-13T12:28:58;26.70;70.07
70336;SHT31;57756;47.408;18.940;2023-10-13T12:31:32;26.71;70.50
70336;SHT31;57756;47.408;18.940;2023-10-13T12:33:58;26.83;69.62
70336;SHT31;57756;47.408;18.940;2023-10-13T12:36:32;26.80;68.69
70336;SHT31;57756;47.408;18.940;2023-10-13T12:39:06;26.98;69.15
70336;SHT31;57756;47.408;18.940;2023-10-13T12:41:32;27.06;67.05
70336;SHT31;57756;47.408;18.940;2023-10-13T12:44:16;27.08;66.09
70336;SHT31;57756;47.408;18.940;2023-10-13T12:47:00;27.04;65.25
70336;SHT31;57756;47.408;18.940;2023-10-13T12:49:44;26.74;65.35
70336;SHT31;57756;47.408;18.940;2023-10-13T12:52:13;26.51;67.33
70336;SHT31;57756;47.408;18.940;2023-10-13T12:54:51;26.30;65.98
70336;SHT31;57756;47.408;18.940;2023-10-13T12:57:26;26.20;65.77
70336;SHT31;57756;47.408;18.940;2023-10-13T12:59:52;25.99;67.09
70336;SHT31;57756;47.408;18.940;2023-10-13T13:02:25;25.80;69.19
70336;SHT31;57756;47.408;18.940;2023-10-13T13:04:54;25.70;69.56
70336;SHT31;57756;47.408;18.940;2023-10-13T13:07:31;25.45;70.90
70336;SHT31;57756;47.408;18.940;2023-10-13T13:09:57;25.37;70.66
70336;SHT31;57756;47.408;18.940;2023-10-13T13:12:25;25.27;70.42
70336;SHT31;57756;47.408;18.940;2023-10-13T13:14:53;25.15;71.37
70336;SHT31;57756;47.408;18.940;2023-10-13T13:17:23;25.10;68.36
70336;SHT31;57756;47.408;18.940;2023-10-13T13:19:48;25.09;68.75
70336;SHT31;57756;47.408;18.940;2023-10-13T13:22:14;25.10;69.31
70336;SHT31;57756;47.408;18.940;2023-10-13T13:24:42;25.07;69.48
70336;SHT31;57756;47.408;18.940;2023-10-13T13:27:14;25.06;68.08
70336;SHT31;57756;47.408;18.940;2023-10-13T13:29:43;25.09;67.65
70336;SHT31;57756;47.408;18.940;2023-10-13T13:32:09;25.05;69.20
70336;SHT31;57756;47.408;18.940;2023-10-13T13:34:53;25.06;67.93
70336;SHT31;57756;47.408;18.940;2023-10-13T13:37:30;25.02;68.16
70336;SHT31;57756;47.408;18.940;2023-10-13T13:39:56;25.02;67.66
70336;SHT31;57756;47.408;18.940;2023-10-13T13:42:21;25.02;67.69
70336;SHT31;57756;47.408;18.940;2023-10-13T13:44:47;25.00;69.11
70336;SHT31;57756;47.408;18.940;2023-10-13T13:47:13;25.10;66.20
70336;SHT31;57756;47.408;18.940;2023-10-13T13:49:40;25.02;66.66
70336;SHT31;57756;47.408;18.940;2023-10-13T13:52:08;24.93;66.70
70336;SHT31;57756;47.408;18.940;2023-10-13T13:54:35;24.89;65.23
70336;SHT31;57756;47.408;18.940;2023-10-13T13:57:01;24.86;67.93
70336;SHT31;57756;47.408;18.940;2023-10-13T13:59:26;24.83;68.02
70336;SHT31;57756;47.408;18.940;2023-10-13T14:01:59;24.78;68.21
70336;SHT31;57756;47.408;18.940;2023-10-13T14:04:25;24.73;68.13
70336;SHT31;57756;47.408;18.940;2023-10-13T14:06:50;24.72;67.74
70336;SHT31;57756;47.408;18.940;2023-10-13T14:09:16;24.65;67.72
70336;SHT31;57756;47.408;18.940;2023-10-13T14:11:58;24.59;67.90
70336;SHT31;57756;47.408;18.940;2023-10-13T14:14:42;24.51;69.24
70336;SHT31;57756;47.408;18.940;2023-10-13T14:17:15;24.47;68.11
70336;SHT31;57756;47.408;18.940;2023-10-13T14:19:40;24.45;67.66
70336;SHT31;57756;47.408;18.940;2023-10-13T14:22:06;24.41;68.04
70336;SHT31;57756;47.408;18.940;2023-10-13T14:24:34;24.34;68.25
70336;SHT31;57756;47.408;18.940;2023-10-13T14:27:01;24.31;68.10
70336;SHT31;57756;47.408;18.940;2023-10-13T14:29:48;24.22;69.29
70336;SHT31;57756;47.408;18.940;2023-10-13T14:32:18;24.13;68.79
70336;SHT31;57756;47.408;18.940;2023-10-13T14:34:45;24.04;70.05
70336;SHT31;57756;47.408;18.940;2023-10-13T14:37:12;24.01;69.33
70336;SHT31;57756;47.408;18.940;2023-10-13T14:39:39;23.94;70.23
70336;SHT31;57756;47.408;18.940;2023-10-13T14:42:05;23.84;70.32
70336;SHT31;57756;47.408;18.940;2023-10-13T14:44:32;23.80;71.41
70336;SHT31;57756;47.408;18.940;2023-10-13T14:46:58;23.77;70.52
70336;SHT31;57756;47.408;18.940;2023-10-13T14:49:23;23.75;69.99
70336;SHT31;57756;47.408;18.940;2023-10-13T14:51:49;23.67;71.06
70336;SHT31;57756;47.408;18.940;2023-10-13T14:54:15;23.56;72.07
70336;SHT31;57756;47.408;18.940;2023-10-13T14:56:41;23.49;72.57
70336;SHT31;57756;47.408;18.940;2023-10-13T14:59:09;23.41;73.82
70336;SHT31;57756;47.408;18.940;2023-10-13T15:01:43;23.27;74.49
70336;SHT31;57756;47.408;18.940;2023-10-13T15:04:08;23.17;74.39
70336;SHT31;57756;47.408;18.940;2023-10-13T15:06:34;23.10;74.80
70336;SHT31;57756;47.408;18.940;2023-10-13T15:09:00;23.07;74.39
70336;SHT31;57756;47.408;18.940;2023-10-13T15:11:27;22.93;76.43
70336;SHT31;57756;47.408;18.940;2023-10-13T15:14:02;22.80;76.64
70336;SHT31;57756;47.408;18.940;2023-10-13T15:16:28;22.70;77.34
70336;SHT31;57756;47.408;18.940;2023-10-13T15:18:53;22.59;78.01
70336;SHT31;57756;47.408;18.940;2023-10-13T15:21:23;22.45;79.04
70336;SHT31;57756;47.408;18.940;2023-10-13T15:23:52;22.33;79.74
70336;SHT31;57756;47.408;18.940;2023-10-13T15:26:19;22.22;80.16
70336;SHT31;57756;47.408;18.940;2023-10-13T15:28:49;22.09;80.52
70336;SHT31;57756;47.408;18.940;2023-10-13T15:31:18;22.00;81.11
70336;SHT31;57756;47.408;18.940;2023-10-13T15:33:59;21.85;81.22
70336;SHT31;57756;47.408;18.940;2023-10-13T15:36:26;21.76;81.36
70336;SHT31;57756;47.408;18.940;2023-10-13T15:38:52;21.64;81.53
70336;SHT31;57756;47.408;18.940;2023-10-13T15:41:28;21.51;81.52
70336;SHT31;57756;47.408;18.940;2023-10-13T15:43:55;21.45;81.36
70336;SHT31;57756;47.408;18.940;2023-10-13T15:46:21;21.35;81.68
70336;SHT31;57756;47.408;18.940;2023-10-13T15:48:48;21.22;82.09
70336;SHT31;57756;47.408;18.940;2023-10-13T15:51:14;21.12;82.07
70336;SHT31;57756;47.408;18.940;2023-10-13T15:53:40;20.99;82.40
70336;SHT31;57756;47.408;18.940;2023-10-13T15:56:06;20.92;82.52
70336;SHT31;57756;47.408;18.940;2023-10-13T15:58:43;20.85;82.51
70336;SHT31;57756;47.408;18.940;2023-10-13T16:01:13;20.71;82.74
70336;SHT31;57756;47.408;18.940;2023-10-13T16:03:40;20.60;82.98
70336;SHT31;57756;47.408;18.940;2023-10-13T16:06:08;20.47;83.03
70336;SHT31;57756;47.408;18.940;2023-10-13T16:08:37;20.36;83.93
70336;SHT31;57756;47.408;18.940;2023-10-13T16:11:04;20.24;83.84
70336;SHT31;57756;47.408;18.940;2023-10-13T16:13:35;20.20;83.83
70336;SHT31;57756;47.408;18.940;2023-10-13T16:16:03;20.06;84.25